Time;durP1;ratioP1;P1;durP2;ratioP2;P2;SDS_P1;SDS_P2;PMS_P1;PMS_P2;Temp;Humidity;BMP_temperature;BMP_pressure;BME280_temperature;BME280_humidity;BME280_pressure;Samples;Min_cycle;Max_cycle;Signal;HPM_P1;HPM_P2
2023/01/12 00:01:21;;;;;;;10.52;2.47;;;8.50;99.90;;;;;;5043394;28;20089;-72
2023/01/12 00:03:47;;;;;;;10.10;2.30;;;8.40;99.90;;;;;;5046649;28;20098;-71
2023/01/12 00:06:14;;;;;;;6.45;1.65;;;8.40;99.90;;;;;;5039813;28;20047;-71
2023/01/12 00:08:40;;;;;;;4.68;1.13;;;8.30;99.90;;;;;;5063287;28;20090;-71
2023/01/12 00:11:07;;;;;;;5.55;1.20;;;8.20;99.90;;;;;;5048047;28;20044;-72
2023/01/12 00:13:33;;;;;;;8.80;2.40;;;8.10;99.90;;;;;;5064354;28;20235;-71
2023/01/12 00:18:45;;;;;;;14.30;4.95;;;8.00;99.90;;;;;;5040030;28;20048;-72
2023/01/12 00:21:11;;;;;;;10.23;4.27;;;8.10;99.90;;;;;;5047807;28;20040;-71
2023/01/12 00:23:38;;;;;;;16.15;4.85;;;8.20;99.90;;;;;;5057456;28;20083;-72
2023/01/12 00:26:05;;;;;;;15.43;4.78;;;8.20;99.90;;;;;;5060434;28;20067;-72
2023/01/12 00:28:31;;;;;;;16.60;5.00;;;8.20;99.90;;;;;;5058449;28;20044;-71
2023/01/12 00:31:08;;;;;;;18.40;5.28;;;8.20;99.90;;;;;;5045236;28;20091;-71
2023/01/12 00:33:35;;;;;;;19.10;5.60;;;8.20;99.90;;;;;;5057531;28;20036;-72
2023/01/12 00:36:02;;;;;;;24.55;5.20;;;8.30;99.90;;;;;;5041214;28;20051;-72
2023/01/12 00:38:28;;;;;;;15.50;4.47;;;8.30;99.90;;;;;;5059801;28;20150;-72
2023/01/12 00:40:53;;;;;;;17.80;5.15;;;8.30;99.90;;;;;;5045366;28;20036;-71
2023/01/12 00:46:04;;;;;;;15.23;5.00;;;8.30;99.90;;;;;;5063688;28;20045;-72
2023/01/12 00:48:29;;;;;;;15.98;4.85;;;8.30;99.90;;;;;;5060715;28;20513;-72
2023/01/12 00:50:55;;;;;;;15.73;5.22;;;8.40;99.90;;;;;;5067530;28;20048;-72
2023/01/12 00:53:21;;;;;;;18.00;4.78;;;8.40;99.90;;;;;;5062257;28;20056;-72
2023/01/12 00:55:48;;;;;;;23.38;5.72;;;8.40;99.90;;;;;;5065533;28;20048;-71
2023/01/12 00:58:13;;;;;;;14.97;4.10;;;8.40;99.90;;;;;;5066959;28;20060;-73
2023/01/12 01:00:39;;;;;;;14.02;4.47;;;8.40;99.90;;;;;;5064218;28;20474;-71
2023/01/12 01:03:04;;;;;;;13.50;3.63;;;8.40;99.90;;;;;;5048265;28;20043;-72
2023/01/12 01:05:30;;;;;;;16.35;4.25;;;8.40;99.90;;;;;;5067825;28;20090;-72
2023/01/12 01:07:56;;;;;;;19.77;5.10;;;8.40;99.90;;;;;;5068388;28;20033;-71
2023/01/12 01:10:21;;;;;;;17.75;4.75;;;8.30;99.90;;;;;;5072071;28;20044;-72
2023/01/12 01:12:47;;;;;;;16.58;4.38;;;8.40;99.90;;;;;;5050453;28;20128;-72
2023/01/12 01:15:12;;;;;;;16.30;4.55;;;8.40;99.90;;;;;;5070140;28;20028;-71
2023/01/12 01:17:38;;;;;;;15.70;4.80;;;8.40;99.90;;;;;;5072832;28;20048;-71
2023/01/12 01:20:04;;;;;;;14.10;4.20;;;8.30;99.90;;;;;;5065537;28;20083;-72
2023/01/12 01:22:30;;;;;;;16.80;4.53;;;8.30;99.90;;;;;;5065751;28;20128;-71
2023/01/12 01:24:55;;;;;;;16.00;4.95;;;8.40;99.90;;;;;;5070293;28;20115;-72
2023/01/12 01:27:21;;;;;;;16.75;5.18;;;8.40;99.90;;;;;;5064364;28;20041;-72
2023/01/12 01:29:46;;;;;;;17.55;4.85;;;8.40;99.90;;;;;;5068423;28;20467;-72
2023/01/12 01:32:12;;;;;;;18.33;4.97;;;8.40;99.90;;;;;;5041095;28;20051;-71
2023/01/12 01:34:38;;;;;;;18.10;5.32;;;8.40;99.90;;;;;;5063590;28;20380;-72
2023/01/12 01:37:03;;;;;;;16.42;4.72;;;8.40;99.90;;;;;;5051858;28;20044;-71
2023/01/12 01:39:29;;;;;;;17.55;5.15;;;8.40;99.90;;;;;;5065432;28;20036;-72
2023/01/12 01:41:55;;;;;;;18.52;4.97;;;8.40;99.90;;;;;;5066005;28;20391;-71
2023/01/12 01:44:29;;;;;;;24.23;5.70;;;8.40;99.90;;;;;;5047518;28;20127;-72
2023/01/12 01:46:55;;;;;;;22.13;5.13;;;8.40;99.90;;;;;;5057798;28;20048;-71
2023/01/12 01:49:24;;;;;;;18.15;5.30;;;8.50;99.90;;;;;;5067152;28;20143;-72
2023/01/12 01:51:53;;;;;;;20.02;5.72;;;8.40;99.90;;;;;;5063943;28;20340;-71
2023/01/12 01:54:19;;;;;;;15.00;4.90;;;8.50;99.90;;;;;;5067524;28;20040;-72
2023/01/12 01:56:46;;;;;;;16.15;5.72;;;8.40;99.90;;;;;;5064524;28;20044;-72
2023/01/12 01:59:18;;;;;;;18.33;5.78;;;8.40;99.90;;;;;;5035730;28;20040;-71
2023/01/12 02:01:44;;;;;;;15.40;5.85;;;8.50;99.90;;;;;;5046647;28;20070;-72
2023/01/12 02:04:10;;;;;;;15.23;6.15;;;8.50;99.90;;;;;;5064619;28;20048;-71
2023/01/12 02:06:36;;;;;;;17.80;6.43;;;8.50;99.90;;;;;;5063235;28;20062;-72
2023/01/12 02:09:13;;;;;;;17.80;6.47;;;8.50;99.90;;;;;;5059167;28;20041;-72
2023/01/12 02:17:31;;;;;;;16.15;6.40;;;8.40;99.90;;;;;;5063431;28;20087;-72
2023/01/12 02:20:30;;;;;;;19.15;6.35;;;8.40;99.90;;;;;;5032537;28;20076;-71
2023/01/12 02:23:37;;;;;;;16.52;6.32;;;8.50;99.90;;;;;;5056288;28;20044;-72
2023/01/12 02:26:24;;;;;;;16.65;5.90;;;8.40;99.90;;;;;;5043182;28;20052;-72
2023/01/12 02:29:14;;;;;;;12.57;6.05;;;8.40;99.90;;;;;;5045918;28;20059;-71
2023/01/12 02:32:10;;;;;;;15.70;6.10;;;8.50;99.90;;;;;;5059880;28;20059;-72
2023/01/12 02:35:04;;;;;;;15.60;6.32;;;8.50;99.90;;;;;;5045728;28;20071;-72
2023/01/12 02:37:39;;;;;;;17.10;6.18;;;8.40;99.90;;;;;;5048396;28;20063;-72
2023/01/12 02:40:16;;;;;;;14.70;6.05;;;8.40;99.90;;;;;;5041613;28;20055;-72
2023/01/12 02:42:53;;;;;;;15.15;6.10;;;8.50;99.90;;;;;;5047546;28;20483;-72
2023/01/12 02:45:30;;;;;;;14.87;5.63;;;8.50;99.90;;;;;;5060288;28;20431;-71
2023/01/12 02:48:13;;;;;;;13.57;6.15;;;8.50;99.90;;;;;;5065972;28;20043;-72
2023/01/12 02:50:57;;;;;;;15.18;5.95;;;8.50;99.90;;;;;;5058023;28;20101;-72
2023/01/12 02:53:29;;;;;;;17.30;6.93;;;8.50;99.90;;;;;;5042474;28;20057;-72
2023/01/12 02:55:59;;;;;;;15.77;5.80;;;8.40;99.90;;;;;;5043999;28;20048;-71
2023/01/12 02:58:27;;;;;;;17.13;7.10;;;8.50;99.90;;;;;;5045454;28;20232;-72
2023/01/12 03:00:55;;;;;;;17.70;6.30;;;8.50;99.90;;;;;;5066626;28;20051;-71
2023/01/12 03:03:21;;;;;;;17.67;7.07;;;8.50;99.90;;;;;;5063697;28;20045;-72
2023/01/12 03:05:47;;;;;;;16.05;6.88;;;8.50;99.90;;;;;;5066396;28;20041;-72
2023/01/12 03:08:16;;;;;;;16.13;7.18;;;8.40;99.90;;;;;;5048743;28;20052;-71
2023/01/12 03:11:03;;;;;;;16.88;8.00;;;8.50;99.90;;;;;;5068426;28;20045;-71
2023/01/12 03:13:31;;;;;;;;;;;8.50;99.90;;;;;;5066642;28;20112;-72
2023/01/12 03:15:59;;;;;;;21.40;8.65;;;8.50;99.90;;;;;;5068518;28;19920;-71
2023/01/12 03:18:57;;;;;;;17.52;9.05;;;8.50;99.90;;;;;;5041884;28;20044;-72
2023/01/12 03:21:25;;;;;;;21.15;9.35;;;8.50;99.90;;;;;;5050691;28;20132;-72
2023/01/12 03:24:10;;;;;;;19.23;9.32;;;8.50;99.90;;;;;;5044872;28;20058;-72
2023/01/12 03:26:39;;;;;;;20.85;10.05;;;8.50;99.90;;;;;;5068779;28;20062;-72
2023/01/12 03:29:14;;;;;;;22.02;10.60;;;8.50;99.90;;;;;;5071260;28;20045;-72
2023/01/12 03:31:41;;;;;;;20.73;10.27;;;8.60;99.90;;;;;;5048099;28;20055;-71
2023/01/12 03:34:08;;;;;;;20.97;10.40;;;8.50;99.90;;;;;;5067608;28;20071;-71
2023/01/12 03:36:59;;;;;;;18.98;10.45;;;8.50;99.90;;;;;;5051179;28;20040;-71
2023/01/12 03:39:37;;;;;;;16.92;9.73;;;8.60;99.90;;;;;;5064268;28;20080;-71
2023/01/12 03:42:20;;;;;;;18.30;8.60;;;8.60;99.90;;;;;;5055441;28;20045;-72
2023/01/12 03:44:45;;;;;;;16.00;9.15;;;8.60;99.90;;;;;;5069514;28;20067;-71
2023/01/12 03:47:16;;;;;;;14.65;9.48;;;8.60;99.90;;;;;;5042747;28;20044;-72
2023/01/12 03:49:56;;;;;;;16.25;8.43;;;8.60;99.90;;;;;;5066143;28;20106;-72
2023/01/12 03:52:24;;;;;;;12.90;7.07;;;8.60;99.90;;;;;;5062939;28;20053;-71
2023/01/12 03:54:52;;;;;;;15.35;6.70;;;8.60;99.90;;;;;;5063116;28;20052;-71
2023/01/12 03:57:20;;;;;;;15.88;7.28;;;8.60;99.90;;;;;;5062415;28;20530;-71
2023/01/12 03:59:47;;;;;;;14.65;6.82;;;8.60;99.90;;;;;;5060604;28;20052;-71
2023/01/12 04:02:13;;;;;;;13.63;6.13;;;8.70;99.90;;;;;;5038725;28;20195;-72
2023/01/12 04:04:39;;;;;;;12.80;5.85;;;8.70;99.90;;;;;;5041294;28;20075;-71
2023/01/12 04:07:04;;;;;;;11.73;4.72;;;8.70;99.90;;;;;;5064275;28;20106;-71
2023/01/12 04:09:30;;;;;;;11.38;4.60;;;8.60;99.90;;;;;;5042839;28;20108;-71
2023/01/12 04:12:11;;;;;;;9.20;4.60;;;8.70;99.90;;;;;;5063306;28;20107;-71
2023/01/12 04:14:42;;;;;;;12.65;4.50;;;8.60;99.90;;;;;;5068749;28;20107;-71
2023/01/12 04:17:09;;;;;;;11.38;4.93;;;8.70;99.90;;;;;;5042219;28;20369;-71
2023/01/12 04:19:35;;;;;;;;;;;8.60;99.90;;;;;;5062736;28;20044;-71
2023/01/12 04:24:45;;;;;;;12.85;4.03;;;8.70;99.90;;;;;;5071605;28;20120;-71
2023/01/12 04:27:11;;;;;;;7.70;3.35;;;8.60;99.90;;;;;;5057522;28;20143;-71
2023/01/12 04:29:37;;;;;;;9.77;3.08;;;8.70;99.90;;;;;;5062579;28;20036;-71
2023/01/12 04:32:04;;;;;;;9.82;3.10;;;8.60;99.90;;;;;;5048668;28;20047;-71
2023/01/12 04:34:29;;;;;;;10.95;3.45;;;8.70;99.90;;;;;;5067626;28;20072;-71
2023/01/12 04:36:55;;;;;;;6.93;2.30;;;8.70;99.90;;;;;;5063404;28;20073;-71
2023/01/12 04:39:21;;;;;;;9.02;2.58;;;8.60;99.90;;;;;;5062686;28;20541;-71
2023/01/12 04:41:47;;;;;;;9.95;2.80;;;8.70;99.90;;;;;;5049090;28;20037;-71
2023/01/12 04:44:12;;;;;;;7.25;2.80;;;8.70;99.90;;;;;;5066881;28;20033;-71
2023/01/12 04:46:38;;;;;;;9.18;3.08;;;8.70;99.90;;;;;;5046535;28;20445;-71
2023/01/12 04:49:04;;;;;;;8.27;2.50;;;8.70;99.90;;;;;;5048194;28;20119;-71
2023/01/12 04:51:30;;;;;;;8.45;2.75;;;8.70;99.90;;;;;;5042683;28;20044;-71
2023/01/12 04:53:56;;;;;;;6.95;2.40;;;8.70;99.90;;;;;;5051652;28;20106;-71
2023/01/12 04:56:21;;;;;;;8.15;2.83;;;8.70;99.90;;;;;;5068251;28;20102;-71
2023/01/12 04:58:47;;;;;;;10.23;2.80;;;8.70;99.90;;;;;;5048558;28;20430;-71
2023/01/12 05:01:15;;;;;;;8.75;3.15;;;8.60;99.90;;;;;;5067465;28;20430;-71
2023/01/12 05:03:42;;;;;;;9.43;2.65;;;8.70;99.90;;;;;;5070772;28;20090;-71
2023/01/12 05:06:08;;;;;;;10.30;2.90;;;8.70;99.90;;;;;;5050396;28;20040;-71
2023/01/12 05:11:20;;;;;;;9.00;3.38;;;8.70;99.90;;;;;;5063123;28;20048;-71
2023/01/12 05:13:46;;;;;;;9.05;3.45;;;8.70;99.90;;;;;;5067821;28;20063;-71
2023/01/12 05:16:15;;;;;;;11.60;4.82;;;8.70;99.90;;;;;;5058664;28;20040;-71
2023/01/12 05:18:41;;;;;;;7.38;2.70;;;8.70;99.90;;;;;;5069633;28;20059;-71
2023/01/12 05:21:07;;;;;;;9.10;4.03;;;8.70;99.90;;;;;;5045058;28;20040;-70
2023/01/12 05:23:33;;;;;;;8.70;3.00;;;8.70;99.90;;;;;;5051542;28;20046;-71
2023/01/12 05:26:03;;;;;;;9.00;3.50;;;8.70;99.90;;;;;;5040818;28;20076;-71
2023/01/12 05:28:29;;;;;;;8.90;3.22;;;8.70;99.90;;;;;;5048513;28;20113;-71
2023/01/12 05:31:04;;;;;;;7.10;2.55;;;8.70;99.90;;;;;;5061265;28;20040;-71
2023/01/12 05:33:30;;;;;;;5.38;2.30;;;8.70;99.90;;;;;;5061412;28;20040;-71
2023/01/12 05:35:56;;;;;;;6.20;2.28;;;8.60;99.90;;;;;;5060803;28;20102;-71
2023/01/12 05:38:22;;;;;;;8.45;2.13;;;8.70;99.90;;;;;;5069424;28;20413;-71
2023/01/12 05:40:48;;;;;;;5.50;1.95;;;8.60;99.90;;;;;;5066005;28;21162;-71
2023/01/12 05:46:03;;;;;;;6.78;2.80;;;8.60;99.90;;;;;;5063200;28;20127;-71
2023/01/12 05:48:30;;;;;;;5.85;1.90;;;8.60;99.90;;;;;;5058881;28;20040;-71
2023/01/12 05:51:00;;;;;;;6.80;2.50;;;8.60;99.90;;;;;;5046341;28;20052;-71
2023/01/12 05:53:26;;;;;;;7.78;2.38;;;8.60;99.90;;;;;;5062967;28;20407;-71
2023/01/12 05:55:52;;;;;;;7.28;2.15;;;8.70;99.90;;;;;;5048343;28;20045;-71
2023/01/12 05:58:17;;;;;;;7.85;2.10;;;8.60;99.90;;;;;;5062741;28;20041;-71
2023/01/12 06:00:43;;;;;;;6.95;2.22;;;8.60;99.90;;;;;;5045787;28;20033;-71
2023/01/12 06:03:08;;;;;;;5.70;1.80;;;8.70;99.90;;;;;;5066279;28;20125;-71
2023/01/12 06:05:34;;;;;;;5.95;1.88;;;8.60;99.90;;;;;;5051171;28;20036;-71
2023/01/12 06:08:01;;;;;;;5.10;1.70;;;8.60;99.90;;;;;;5047693;28;20499;-71
2023/01/12 06:10:27;;;;;;;8.15;2.10;;;8.70;99.90;;;;;;5066696;28;20119;-71
2023/01/12 06:15:37;;;;;;;5.30;2.03;;;8.60;99.90;;;;;;5060390;28;20578;-71
2023/01/12 06:18:03;;;;;;;10.95;2.28;;;8.70;99.90;;;;;;5065308;28;20534;-72
2023/01/12 06:20:28;;;;;;;7.30;2.30;;;8.70;99.90;;;;;;5048231;28;20136;-72
2023/01/12 06:22:54;;;;;;;8.93;2.47;;;8.70;99.90;;;;;;5065419;28;20156;-72
2023/01/12 06:25:20;;;;;;;7.93;2.70;;;8.70;99.90;;;;;;5065222;28;20506;-71
2023/01/12 06:27:45;;;;;;;8.77;2.50;;;8.70;99.90;;;;;;5032254;28;20407;-72
2023/01/12 06:30:11;;;;;;;7.43;2.42;;;8.70;99.90;;;;;;5043556;28;20437;-72
2023/01/12 06:32:37;;;;;;;6.65;2.20;;;8.70;99.90;;;;;;5041772;28;20070;-71
2023/01/12 06:35:04;;;;;;;6.35;2.22;;;8.70;99.90;;;;;;5063430;28;20036;-72
2023/01/12 06:37:29;;;;;;;5.75;1.73;;;8.70;99.90;;;;;;5064229;28;20459;-72
2023/01/12 06:39:55;;;;;;;3.92;1.58;;;8.80;99.90;;;;;;5045457;28;20049;-72
2023/01/12 06:42:30;;;;;;;7.30;2.25;;;8.70;99.90;;;;;;5048573;28;20564;-72
2023/01/12 06:45:02;;;;;;;6.97;1.88;;;8.70;99.90;;;;;;5063843;28;20044;-71
2023/01/12 06:47:30;;;;;;;4.88;1.80;;;8.80;99.90;;;;;;5041369;28;20052;-72
2023/01/12 06:49:56;;;;;;;4.88;1.73;;;8.80;99.90;;;;;;5038739;28;20044;-72
2023/01/12 06:52:24;;;;;;;4.75;1.83;;;8.80;99.90;;;;;;5044093;28;20059;-72
2023/01/12 06:54:50;;;;;;;;;;;8.80;99.90;;;;;;5067710;28;20055;-72
2023/01/12 06:57:16;;;;;;;6.20;2.05;;;8.80;99.90;;;;;;5062466;28;20004;-72
2023/01/12 06:59:42;;;;;;;5.35;2.47;;;8.80;99.90;;;;;;5059068;28;20064;-72
2023/01/12 07:02:15;;;;;;;5.35;1.90;;;8.80;99.90;;;;;;5067844;28;20495;-72
2023/01/12 07:04:41;;;;;;;3.92;1.75;;;8.80;99.90;;;;;;5048230;28;20037;-72
2023/01/12 07:07:08;;;;;;;4.53;1.75;;;8.90;99.90;;;;;;5050435;28;20098;-73
2023/01/12 07:09:34;;;;;;;3.95;1.50;;;8.90;99.90;;;;;;5050827;28;20075;-73
2023/01/12 07:12:00;;;;;;;4.18;1.55;;;8.90;99.90;;;;;;5043054;28;20080;-72
2023/01/12 07:14:26;;;;;;;5.50;2.20;;;8.90;99.90;;;;;;5060457;28;20086;-71
2023/01/12 07:16:52;;;;;;;4.60;1.70;;;8.90;99.90;;;;;;5065106;28;20040;-71
2023/01/12 07:19:18;;;;;;;4.38;1.63;;;8.90;99.90;;;;;;5064434;28;20068;-71
2023/01/12 07:21:44;;;;;;;4.15;1.45;;;8.90;99.90;;;;;;5045752;28;20139;-71
2023/01/12 07:24:10;;;;;;;3.47;1.65;;;9.00;99.90;;;;;;5062262;28;20076;-71
2023/01/12 07:26:36;;;;;;;4.28;1.73;;;9.00;99.90;;;;;;5060379;28;20090;-71
2023/01/12 07:29:02;;;;;;;4.07;1.73;;;9.00;99.90;;;;;;5059133;28;20586;-71
2023/01/12 07:31:28;;;;;;;4.53;1.92;;;9.10;99.90;;;;;;5062760;28;20526;-71
2023/01/12 07:33:54;;;;;;;5.95;1.90;;;9.00;99.90;;;;;;5042189;28;20048;-71
2023/01/12 07:36:20;;;;;;;3.33;1.65;;;9.00;99.90;;;;;;5062492;28;20052;-71
2023/01/12 07:38:46;;;;;;;3.05;1.70;;;9.00;99.90;;;;;;5062144;28;20040;-71
2023/01/12 07:42:22;;;;;;;6.25;2.28;;;9.00;99.90;;;;;;5058118;28;20107;-71
2023/01/12 07:43:58;;;;;;;2.50;1.20;;;9.10;99.90;;;;;;5039412;28;20135;-72
2023/01/12 07:46:24;;;;;;;3.63;1.70;;;9.10;99.90;;;;;;5066336;28;20121;-72
2023/01/12 07:48:52;;;;;;;3.13;1.60;;;9.10;99.90;;;;;;5048018;28;20040;-72
2023/01/12 07:51:18;;;;;;;3.83;1.77;;;9.10;99.90;;;;;;5065063;28;20102;-72
2023/01/12 07:53:46;;;;;;;3.47;1.73;;;9.00;99.90;;;;;;5048249;28;20140;-71
2023/01/12 07:56:14;;;;;;;3.80;1.70;;;9.10;99.90;;;;;;5049519;28;20049;-71
2023/01/12 07:58:50;;;;;;;3.35;1.67;;;9.10;99.90;;;;;;5065611;28;20040;-72
2023/01/12 08:01:16;;;;;;;3.75;1.85;;;9.00;99.90;;;;;;5049061;28;20258;-71
2023/01/12 08:03:42;;;;;;;3.70;1.90;;;9.20;99.90;;;;;;5068302;28;20123;-71
2023/01/12 08:06:08;;;;;;;4.45;1.80;;;9.10;99.90;;;;;;5047443;28;20044;-71
2023/01/12 08:08:34;;;;;;;2.47;1.60;;;9.20;99.90;;;;;;5062342;28;20048;-71
2023/01/12 08:11:04;;;;;;;3.85;1.80;;;9.20;99.90;;;;;;5063334;28;20093;-71
2023/01/12 08:13:30;;;;;;;2.92;1.73;;;9.20;99.90;;;;;;5059962;28;20049;-71
2023/01/12 08:16:03;;;;;;;2.33;1.42;;;9.20;99.90;;;;;;5051583;28;20055;-71
2023/01/12 08:18:36;;;;;;;4.05;2.17;;;9.20;99.90;;;;;;5050262;28;20051;-72
2023/01/12 08:21:06;;;;;;;3.50;2.00;;;9.10;99.90;;;;;;5068873;28;20040;-72
2023/01/12 08:23:37;;;;;;;4.32;1.70;;;9.20;99.90;;;;;;5048006;28;20040;-71
2023/01/12 08:26:09;;;;;;;3.20;1.98;;;9.20;99.90;;;;;;5069553;28;20375;-71
2023/01/12 08:28:53;;;;;;;2.95;2.13;;;9.20;99.90;;;;;;5051309;28;20036;-72
2023/01/12 08:31:21;;;;;;;3.17;2.05;;;9.20;99.90;;;;;;5042830;28;20790;-71
2023/01/12 08:33:47;;;;;;;5.00;2.47;;;9.20;99.90;;;;;;5069199;28;20497;-72
2023/01/12 08:36:15;;;;;;;4.78;2.58;;;9.30;99.90;;;;;;5066985;28;20037;-71
2023/01/12 08:38:41;;;;;;;3.97;2.53;;;9.30;99.90;;;;;;5062625;28;20052;-72
2023/01/12 08:44:09;;;;;;;4.20;2.92;;;9.30;99.90;;;;;;5062309;28;20044;-73
2023/01/12 08:46:46;;;;;;;5.53;2.50;;;9.30;99.90;;;;;;5039689;28;20509;-73
2023/01/12 08:49:13;;;;;;;3.22;2.70;;;9.30;99.90;;;;;;5072373;28;20127;-72
2023/01/12 08:51:39;;;;;;;3.85;2.70;;;9.30;99.90;;;;;;5050327;28;20555;-73
2023/01/12 08:54:06;;;;;;;3.42;3.13;;;9.30;99.90;;;;;;5072799;28;20491;-74
2023/01/12 08:56:33;;;;;;;3.47;2.75;;;9.40;99.90;;;;;;5053174;28;20083;-74
2023/01/12 08:58:59;;;;;;;4.50;3.10;;;9.40;99.90;;;;;;5054256;28;20098;-73
2023/01/12 09:01:26;;;;;;;4.00;3.13;;;9.40;99.90;;;;;;5071402;28;20105;-73
2023/01/12 09:03:52;;;;;;;4.70;3.20;;;9.50;99.90;;;;;;5053567;28;20045;-73
2023/01/12 09:06:17;;;;;;;4.03;3.22;;;9.50;99.90;;;;;;5068235;28;20041;-72
2023/01/12 09:08:44;;;;;;;5.18;3.75;;;9.50;99.90;;;;;;5048765;28;20501;-74
2023/01/12 09:11:11;;;;;;;3.97;3.57;;;9.50;99.90;;;;;;5071285;28;20072;-74
2023/01/12 09:13:37;;;;;;;5.88;3.60;;;9.60;99.90;;;;;;5071563;28;20391;-72
2023/01/12 09:16:08;;;;;;;3.83;3.17;;;9.60;99.90;;;;;;5066272;28;20040;-73
2023/01/12 09:18:34;;;;;;;3.55;3.25;;;9.60;99.90;;;;;;5068031;28;20044;-73
2023/01/12 09:21:08;;;;;;;4.88;3.58;;;9.60;99.90;;;;;;5068043;28;20024;-76
2023/01/12 09:23:34;;;;;;;3.65;3.10;;;9.70;99.90;;;;;;5055088;28;20105;-76
2023/01/12 09:26:06;;;;;;;3.67;2.70;;;9.60;99.90;;;;;;5071659;28;20047;-73
2023/01/12 09:28:32;;;;;;;4.85;2.80;;;9.70;99.90;;;;;;5070708;28;20040;-72
2023/01/12 09:31:02;;;;;;;3.70;2.60;;;9.80;99.90;;;;;;5073484;28;20047;-71
2023/01/12 09:33:29;;;;;;;4.78;2.80;;;9.70;99.90;;;;;;5062270;28;20344;-74
2023/01/12 09:36:11;;;;;;;4.53;2.30;;;9.70;99.90;;;;;;5038289;28;20049;-75
2023/01/12 09:38:39;;;;;;;3.78;2.70;;;9.90;99.90;;;;;;5066558;28;20396;-77
2023/01/12 09:47:26;;;;;;;8.80;3.75;;;9.90;99.90;;;;;;5071490;28;20049;-72
2023/01/12 09:50:07;;;;;;;6.40;3.42;;;10.00;99.90;;;;;;5072795;28;20063;-74
2023/01/12 09:52:56;;;;;;;8.23;3.50;;;10.00;99.90;;;;;;5051726;28;20388;-75
2023/01/12 09:55:24;;;;;;;8.57;3.65;;;10.00;99.90;;;;;;5076110;28;20059;-78
2023/01/12 09:58:02;;;;;;;8.52;3.60;;;10.10;99.90;;;;;;5092814;28;20039;-79
2023/01/12 10:00:28;;;;;;;9.90;3.70;;;10.10;99.90;;;;;;5074218;28;20056;-79
2023/01/12 10:03:06;;;;;;;12.40;3.50;;;10.20;99.90;;;;;;5052177;28;20066;-80
2023/01/12 10:05:38;;;;;;;12.73;4.20;;;10.20;99.90;;;;;;5066374;28;20044;-75
2023/01/12 10:08:04;;;;;;;13.95;4.45;;;10.30;99.90;;;;;;5066453;28;20036;-72
2023/01/12 10:10:29;;;;;;;11.70;3.83;;;10.30;99.90;;;;;;5068062;28;20538;-72
2023/01/12 10:13:01;;;;;;;16.63;3.67;;;10.30;99.90;;;;;;5072384;28;20178;-73
2023/01/12 10:15:47;;;;;;;13.13;3.40;;;10.40;99.90;;;;;;5067236;28;20067;-72
2023/01/12 10:18:37;;;;;;;17.63;4.35;;;10.40;99.90;;;;;;5072015;28;20040;-72
2023/01/12 10:21:09;;;;;;;14.32;4.10;;;10.50;99.90;;;;;;5050391;28;20079;-73
2023/01/12 10:23:35;;;;;;;18.75;3.83;;;10.50;99.90;;;;;;5053013;28;20051;-73
2023/01/12 10:26:19;;;;;;;16.52;3.88;;;10.60;99.90;;;;;;5065136;28;20045;-71
2023/01/12 10:28:45;;;;;;;18.30;3.75;;;10.60;99.90;;;;;;5066314;28;20051;-71
2023/01/12 10:31:17;;;;;;;16.07;3.73;;;10.60;99.90;;;;;;5067980;28;20050;-71
2023/01/12 10:34:07;;;;;;;21.60;4.25;;;10.70;99.90;;;;;;5052412;28;20046;-72
2023/01/12 10:36:42;;;;;;;18.75;4.35;;;10.70;99.90;;;;;;5057414;28;20093;-72
2023/01/12 10:39:27;;;;;;;18.50;3.80;;;10.80;99.90;;;;;;5052350;28;20086;-71
2023/01/12 10:43:17;;;;;;;19.23;3.80;;;10.80;99.90;;;;;;5067407;28;20094;-71
2023/01/12 10:45:11;;;;;;;18.08;4.40;;;10.80;99.90;;;;;;5067139;28;20045;-72
2023/01/12 10:47:36;;;;;;;15.70;4.30;;;10.80;99.90;;;;;;5065169;28;20080;-70
2023/01/12 10:50:22;;;;;;;16.08;3.72;;;10.90;99.90;;;;;;5065873;28;20040;-72
2023/01/12 10:52:52;;;;;;;19.13;3.70;;;10.90;99.90;;;;;;5069575;28;20574;-72
2023/01/12 10:55:19;;;;;;;13.95;3.10;;;10.90;99.90;;;;;;5069379;28;20052;-71
2023/01/12 10:57:48;;;;;;;12.35;2.70;;;10.90;99.90;;;;;;5068779;28;20053;-72
2023/01/12 11:00:33;;;;;;;9.60;2.47;;;10.90;99.90;;;;;;5069585;28;20033;-71
2023/01/12 11:02:58;;;;;;;15.05;3.35;;;10.90;99.90;;;;;;5050901;28;20049;-73
2023/01/12 11:05:37;;;;;;;14.35;3.00;;;10.80;99.90;;;;;;5064579;28;20037;-75
2023/01/12 11:08:27;;;;;;;17.98;3.95;;;10.80;99.90;;;;;;5068973;28;20033;-74
2023/01/12 11:10:53;;;;;;;19.45;3.75;;;10.90;99.90;;;;;;5068604;28;20036;-73
2023/01/12 11:13:35;;;;;;;21.50;4.80;;;10.90;99.90;;;;;;5042094;28;20048;-74
2023/01/12 11:16:21;;;;;;;20.35;3.80;;;11.00;99.90;;;;;;5066983;28;20051;-75
2023/01/12 11:19:06;;;;;;;17.73;4.18;;;11.00;99.90;;;;;;5049298;28;20044;-74
2023/01/12 11:21:38;;;;;;;17.60;3.95;;;11.00;99.90;;;;;;5068367;28;20109;-73
2023/01/12 11:24:36;;;;;;;21.88;4.47;;;11.00;99.90;;;;;;5065255;28;20040;-72
2023/01/12 11:27:26;;;;;;;19.58;4.05;;;11.00;99.90;;;;;;5036356;28;20044;-71
2023/01/12 11:29:59;;;;;;;23.02;4.75;;;11.00;99.90;;;;;;5043394;28;20048;-72
2023/01/12 11:32:57;;;;;;;22.10;3.92;;;11.00;99.90;;;;;;5067063;28;20045;-72
2023/01/12 11:35:48;;;;;;;19.10;3.95;;;11.00;99.90;;;;;;5057448;28;20090;-72
2023/01/12 11:38:29;;;;;;;24.38;5.05;;;11.00;99.90;;;;;;5069080;28;20120;-72
2023/01/12 11:40:57;;;;;;;20.73;5.03;;;11.00;99.90;;;;;;5038654;28;20048;-76
2023/01/12 11:43:49;;;;;;;24.10;5.00;;;11.10;99.90;;;;;;5064133;28;20117;-76
2023/01/12 11:46:27;;;;;;;21.33;4.78;;;11.10;99.90;;;;;;5056195;28;20045;-71
2023/01/12 11:49:12;;;;;;;25.80;4.78;;;11.10;99.90;;;;;;5044946;28;20514;-72
2023/01/12 11:51:39;;;;;;;24.45;4.63;;;11.20;99.90;;;;;;5040694;28;20106;-70
2023/01/12 11:54:06;;;;;;;19.57;4.57;;;11.20;99.90;;;;;;5059106;28;20044;-70
2023/01/12 11:57:10;;;;;;;20.75;4.25;;;11.20;99.90;;;;;;5048053;28;20111;-70
2023/01/12 11:59:44;;;;;;;20.25;4.82;;;11.30;99.90;;;;;;4963306;28;20050;-72
2023/01/12 12:02:28;;;;;;;27.20;5.32;;;11.40;99.90;;;;;;5033392;28;20063;-72
2023/01/12 12:05:08;;;;;;;26.83;5.13;;;11.40;99.90;;;;;;5067377;28;20036;-72
2023/01/12 12:07:37;;;;;;;21.70;4.63;;;11.40;99.90;;;;;;5065060;28;20048;-73
2023/01/12 12:10:24;;;;;;;20.33;4.45;;;11.40;99.90;;;;;;5049677;28;20045;-74
2023/01/12 12:13:37;;;;;;;20.05;3.97;;;11.40;99.90;;;;;;5038439;28;20043;-73
2023/01/12 12:16:27;;;;;;;20.83;4.00;;;11.40;99.90;;;;;;5046661;28;20045;-73
2023/01/12 12:19:31;;;;;;;21.25;4.53;;;11.40;99.90;;;;;;5047700;28;20474;-73
2023/01/12 12:21:57;;;;;;;15.90;3.92;;;11.40;99.90;;;;;;5062575;28;20056;-72
2023/01/12 12:24:49;;;;;;;17.42;4.47;;;11.40;99.90;;;;;;5067445;28;20060;-72
2023/01/12 12:27:52;;;;;;;17.42;4.20;;;11.40;99.90;;;;;;5064580;28;20086;-71
2023/01/12 12:30:46;;;;;;;20.65;4.35;;;11.40;99.90;;;;;;5066394;28;20053;-73
2023/01/12 12:33:45;;;;;;;22.23;4.88;;;11.40;99.90;;;;;;5069087;28;20060;-72
2023/01/12 12:36:23;;;;;;;20.88;4.63;;;11.40;99.90;;;;;;5051144;28;20124;-72
2023/01/12 12:39:13;;;;;;;23.33;5.05;;;11.40;99.90;;;;;;5069968;28;20041;-71
2023/01/12 12:45:16;;;;;;;21.05;4.70;;;11.30;99.90;;;;;;5067067;28;20119;-72
2023/01/12 12:48:02;;;;;;;24.45;5.28;;;11.30;99.90;;;;;;5048144;28;20055;-72
2023/01/12 12:50:34;;;;;;;25.20;6.25;;;11.30;99.90;;;;;;5065755;28;20043;-70
2023/01/12 12:53:11;;;;;;;20.23;4.57;;;11.30;99.90;;;;;;5070143;28;20125;-72
2023/01/12 12:55:37;;;;;;;22.90;4.85;;;11.30;99.90;;;;;;5066402;28;20032;-73
2023/01/12 12:58:31;;;;;;;23.75;4.43;;;11.30;99.90;;;;;;5070614;28;20101;-72
2023/01/12 13:01:20;;;;;;;21.20;4.30;;;11.30;99.90;;;;;;5066049;28;20052;-72
2023/01/12 13:03:50;;;;;;;22.63;4.70;;;11.40;99.90;;;;;;5066317;28;20055;-72
2023/01/12 13:06:29;;;;;;;21.25;5.10;;;11.40;99.90;;;;;;5066256;28;20048;-72
2023/01/12 13:08:56;;;;;;;21.95;4.20;;;11.40;99.90;;;;;;5050879;28;20097;-72
2023/01/12 13:12:07;;;;;;;25.08;5.68;;;11.40;99.90;;;;;;5072230;28;20487;-73
2023/01/12 13:14:38;;;;;;;23.75;4.85;;;11.40;99.90;;;;;;5080905;28;20491;-72
2023/01/12 13:17:19;;;;;;;23.33;4.03;;;11.40;99.90;;;;;;5066327;28;20402;-73
2023/01/12 13:19:46;;;;;;;19.23;4.03;;;11.40;99.90;;;;;;5043189;28;20654;-72
2023/01/12 13:22:29;;;;;;;23.13;4.15;;;11.40;99.90;;;;;;5068076;28;20255;-71
2023/01/12 13:25:00;;;;;;;23.42;4.13;;;11.40;99.90;;;;;;5046438;28;20053;-72
2023/01/12 13:27:48;;;;;;;21.13;4.25;;;11.40;99.90;;;;;;5068406;28;20426;-73
2023/01/12 13:30:52;;;;;;;24.95;4.93;;;11.40;99.90;;;;;;5041941;28;20561;-73
2023/01/12 13:33:26;;;;;;;19.08;4.68;;;11.40;99.90;;;;;;5029187;28;20061;-74
2023/01/12 13:35:52;;;;;;;14.18;3.47;;;11.40;99.90;;;;;;5045492;28;20053;-74
2023/01/12 13:38:35;;;;;;;14.75;3.30;;;11.30;99.90;;;;;;5070140;28;20609;-72
2023/01/12 13:41:12;;;;;;;12.80;3.10;;;11.30;99.90;;;;;;5069624;28;20047;-73
2023/01/12 13:43:53;;;;;;;15.57;3.10;;;11.30;99.90;;;;;;5050795;28;20045;-72
2023/01/12 13:46:29;;;;;;;12.50;2.88;;;11.40;99.90;;;;;;5042184;28;20049;-72
2023/01/12 13:48:55;;;;;;;12.18;3.35;;;11.30;99.90;;;;;;5061253;28;20436;-72